sensor_id;sensor_type;location;lat;lon;timestamp;pressure;altitude;pressure_sealevel;temperature;humidity
5238;BME280;2639;49.700;7.962;2023-01-26T04:03:03;99335.94;;;-0.26;100.00
5238;BME280;2639;49.700;7.962;2023-01-26T04:06:25;99345.53;;;-0.43;100.00
5238;BME280;2639;49.700;7.962;2023-01-26T04:09:45;99338.81;;;-0.50;100.00
5238;BME280;2639;49.700;7.962;2023-01-26T04:12:55;99326.66;;;-0.59;100.00
5238;BME280;2639;49.700;7.962;2023-01-26T04:16:16;99330.28;;;-0.57;100.00
5238;BME280;2639;49.700;7.962;2023-01-26T04:19:38;99334.16;;;-0.67;100.00
5238;BME280;2639;49.700;7.962;2023-01-26T04:22:59;99328.31;;;-0.73;100.00
5238;BME280;2639;49.700;7.962;2023-01-26T04:26:09;99328.72;;;-0.70;100.00
5238;BME280;2639;49.700;7.962;2023-01-26T04:29:19;99325.19;;;-0.65;100.00
5238;BME280;2639;49.700;7.962;2023-01-26T04:32:31;99312.94;;;-0.61;100.00
5238;BME280;2639;49.700;7.962;2023-01-26T04:35:42;99311.00;;;-0.57;100.00
5238;BME280;2639;49.700;7.962;2023-01-26T04:38:52;99313.31;;;-0.58;100.00
5238;BME280;2639;49.700;7.962;2023-01-26T04:42:02;99308.28;;;-0.58;100.00
5238;BME280;2639;49.700;7.962;2023-01-26T04:45:12;99309.22;;;-0.58;100.00
5238;BME280;2639;49.700;7.962;2023-01-26T04:48:24;99310.16;;;-0.50;100.00
5238;BME280;2639;49.700;7.962;2023-01-26T04:51:35;99304.03;;;-0.52;100.00
5238;BME280;2639;49.700;7.962;2023-01-26T04:54:44;99302.97;;;-0.47;100.00
5238;BME280;2639;49.700;7.962;2023-01-26T04:57:54;99301.94;;;-0.42;100.00
5238;BME280;2639;49.700;7.962;2023-01-26T05:01:05;99301.03;;;-0.43;100.00
5238;BME280;2639;49.700;7.962;2023-01-26T05:04:15;99309.00;;;-0.39;100.00
5238;BME280;2639;49.700;7.962;2023-01-26T05:07:28;99289.38;;;-0.35;100.00
5238;BME280;2639;49.700;7.962;2023-01-26T05:10:38;99297.28;;;-0.39;100.00
5238;BME280;2639;49.700;7.962;2023-01-26T05:14:00;99300.56;;;-0.33;100.00
5238;BME280;2639;49.700;7.962;2023-01-26T05:17:17;99291.97;;;-0.28;100.00
5238;BME280;2639;49.700;7.962;2023-01-26T05:20:35;99288.34;;;-0.30;100.00
5238;BME280;2639;49.700;7.962;2023-01-26T05:23:58;99290.88;;;-0.30;100.00
5238;BME280;2639;49.700;7.962;2023-01-26T05:27:22;99287.94;;;-0.33;100.00
5238;BME280;2639;49.700;7.962;2023-01-26T05:30:35;99304.81;;;-0.46;100.00
5238;BME280;2639;49.700;7.962;2023-01-26T05:33:45;99302.06;;;-0.48;100.00
5238;BME280;2639;49.700;7.962;2023-01-26T05:37:00;99301.56;;;-0.45;100.00
5238;BME280;2639;49.700;7.962;2023-01-26T05:40:12;99292.19;;;-0.46;100.00
5238;BME280;2639;49.700;7.962;2023-01-26T05:43:22;99283.69;;;-0.47;100.00
5238;BME280;2639;49.700;7.962;2023-01-26T05:46:49;99293.94;;;-0.52;100.00
5238;BME280;2639;49.700;7.962;2023-01-26T05:49:59;99303.75;;;-0.61;100.00
5238;BME280;2639;49.700;7.962;2023-01-26T05:53:11;99302.88;;;-0.61;100.00
5238;BME280;2639;49.700;7.962;2023-01-26T05:56:23;99304.75;;;-0.53;100.00
5238;BME280;2639;49.700;7.962;2023-01-26T05:59:39;99300.72;;;-0.58;100.00
5238;BME280;2639;49.700;7.962;2023-01-26T08:33:39;99366.09;;;-0.40;100.00
5238;BME280;2639;49.700;7.962;2023-01-26T08:36:49;99369.72;;;-0.38;100.00
5238;BME280;2639;49.700;7.962;2023-01-26T08:39:59;99368.56;;;-0.47;99.52
5238;BME280;2639;49.700;7.962;2023-01-26T08:43:08;99364.22;;;-0.48;100.00
5238;BME280;2639;49.700;7.962;2023-01-26T08:46:18;99373.97;;;-0.64;100.00
5238;BME280;2639;49.700;7.962;2023-01-26T08:49:29;99371.41;;;-0.71;100.00
5238;BME280;2639;49.700;7.962;2023-01-26T08:52:39;99378.13;;;-0.65;100.00
5238;BME280;2639;49.700;7.962;2023-01-26T08:55:49;99382.19;;;-0.52;100.00
5238;BME280;2639;49.700;7.962;2023-01-26T08:58:58;99387.84;;;-0.48;100.00
5238;BME280;2639;49.700;7.962;2023-01-26T09:02:08;99378.88;;;-0.58;99.70
5238;BME280;2639;49.700;7.962;2023-01-26T09:05:19;99383.28;;;-0.70;100.00
5238;BME280;2639;49.700;7.962;2023-01-26T09:08:29;99394.03;;;-0.58;100.00
5238;BME280;2639;49.700;7.962;2023-01-26T09:11:40;99392.59;;;-0.56;100.00
5238;BME280;2639;49.700;7.962;2023-01-26T09:14:49;99390.66;;;-0.52;100.00
5238;BME280;2639;49.700;7.962;2023-01-26T09:17:59;99389.53;;;-0.41;100.00
5238;BME280;2639;49.700;7.962;2023-01-26T09:21:10;99394.03;;;-0.38;99.25
5238;BME280;2639;49.700;7.962;2023-01-26T09:24:19;99386.78;;;-0.43;98.53
5238;BME280;2639;49.700;7.962;2023-01-26T09:27:29;99382.22;;;-0.32;98.22
5238;BME280;2639;49.700;7.962;2023-01-26T09:30:39;99383.81;;;-0.33;97.64
5238;BME280;2639;49.700;7.962;2023-01-26T09:33:49;99378.44;;;-0.29;96.91
5238;BME280;2639;49.700;7.962;2023-01-26T09:37:00;99378.00;;;-0.39;95.97
5238;BME280;2639;49.700;7.962;2023-01-26T09:40:15;99385.50;;;-0.46;95.20
5238;BME280;2639;49.700;7.962;2023-01-26T09:43:31;99394.56;;;-0.41;95.25
5238;BME280;2639;49.700;7.962;2023-01-26T09:46:54;99398.06;;;-0.33;95.29
5238;BME280;2639;49.700;7.962;2023-01-26T09:50:12;99394.66;;;-0.47;94.93
5238;BME280;2639;49.700;7.962;2023-01-26T09:53:30;99397.78;;;-0.42;94.73
5238;BME280;2639;49.700;7.962;2023-01-26T09:56:43;99397.66;;;-0.36;95.49
5238;BME280;2639;49.700;7.962;2023-01-26T09:59:57;99392.91;;;-0.28;95.70
5238;BME280;2639;49.700;7.962;2023-01-26T10:03:15;99390.84;;;-0.30;94.84
5238;BME280;2639;49.700;7.962;2023-01-26T10:06:29;99399.41;;;-0.23;95.53
5238;BME280;2639;49.700;7.962;2023-01-26T10:09:55;99388.03;;;-0.26;95.04
5238;BME280;2639;49.700;7.962;2023-01-26T10:13:05;99386.81;;;-0.23;94.77
5238;BME280;2639;49.700;7.962;2023-01-26T10:16:15;99386.41;;;-0.26;94.56
5238;BME280;2639;49.700;7.962;2023-01-26T10:19:31;99388.16;;;-0.32;96.06
5238;BME280;2639;49.700;7.962;2023-01-26T10:22:44;99384.00;;;-0.31;96.29
5238;BME280;2639;49.700;7.962;2023-01-26T10:26:05;99380.13;;;-0.22;95.47
5238;BME280;2639;49.700;7.962;2023-01-26T10:29:15;99369.16;;;-0.23;95.39
5238;BME280;2639;49.700;7.962;2023-01-26T10:32:25;99366.63;;;-0.23;95.06
5238;BME280;2639;49.700;7.962;2023-01-26T10:35:35;99369.19;;;-0.15;95.58
5238;BME280;2639;49.700;7.962;2023-01-26T10:38:45;99361.69;;;-0.08;95.85
5238;BME280;2639;49.700;7.962;2023-01-26T10:41:58;99357.59;;;-0.01;95.81
5238;BME280;2639;49.700;7.962;2023-01-26T10:45:24;99357.47;;;0.05;95.03
5238;BME280;2639;49.700;7.962;2023-01-26T10:48:34;99350.53;;;-0.03;95.16
5238;BME280;2639;49.700;7.962;2023-01-26T10:51:45;99355.84;;;-0.14;94.06
5238;BME280;2639;49.700;7.962;2023-01-26T10:55:19;99348.44;;;-0.40;94.68
5238;BME280;2639;49.700;7.962;2023-01-26T10:58:41;99344.63;;;-0.44;95.09
5238;BME280;2639;49.700;7.962;2023-01-26T11:01:53;99342.34;;;-0.35;94.24
5238;BME280;2639;49.700;7.962;2023-01-26T11:05:19;99344.50;;;-0.38;94.20
5238;BME280;2639;49.700;7.962;2023-01-26T11:08:31;99342.06;;;-0.51;94.47
5238;BME280;2639;49.700;7.962;2023-01-26T11:11:54;99338.47;;;-0.26;95.12
5238;BME280;2639;49.700;7.962;2023-01-26T11:15:15;99337.81;;;-0.17;92.62
5238;BME280;2639;49.700;7.962;2023-01-26T11:18:36;99329.88;;;-0.20;93.14
5238;BME280;2639;49.700;7.962;2023-01-26T11:21:53;99319.91;;;-0.26;92.90
5238;BME280;2639;49.700;7.962;2023-01-26T11:25:21;99313.31;;;-0.18;93.43
5238;BME280;2639;49.700;7.962;2023-01-26T11:28:41;99321.31;;;-0.08;93.15
5238;BME280;2639;49.700;7.962;2023-01-26T11:32:02;99317.31;;;-0.13;93.15
5238;BME280;2639;49.700;7.962;2023-01-26T11:35:22;99311.94;;;-0.09;93.52
5238;BME280;2639;49.700;7.962;2023-01-26T11:38:38;99306.16;;;-0.08;93.79
5238;BME280;2639;49.700;7.962;2023-01-26T11:41:59;99308.94;;;0.01;93.90
5238;BME280;2639;49.700;7.962;2023-01-26T11:45:20;99316.63;;;-0.05;93.37
5238;BME280;2639;49.700;7.962;2023-01-26T11:48:41;99300.59;;;-0.06;93.68
5238;BME280;2639;49.700;7.962;2023-01-26T11:52:01;99303.22;;;-0.18;93.43
5238;BME280;2639;49.700;7.962;2023-01-26T11:55:20;99303.44;;;-0.10;93.39
5238;BME280;2639;49.700;7.962;2023-01-26T11:58:38;99299.69;;;-0.06;94.33
5238;BME280;2639;49.700;7.962;2023-01-26T12:01:52;99295.91;;;-0.03;92.62
5238;BME280;2639;49.700;7.962;2023-01-26T12:05:11;99290.66;;;-0.11;91.57
5238;BME280;2639;49.700;7.962;2023-01-26T12:08:25;99272.53;;;-0.22;91.99
5238;BME280;2639;49.700;7.962;2023-01-26T12:11:40;99275.78;;;-0.23;92.55
5238;BME280;2639;49.700;7.962;2023-01-26T12:14:57;99280.03;;;-0.09;92.68
5238;BME280;2639;49.700;7.962;2023-01-26T12:18:18;99275.00;;;-0.02;91.53
5238;BME280;2639;49.700;7.962;2023-01-26T12:21:33;99267.66;;;0.00;91.07
5238;BME280;2639;49.700;7.962;2023-01-26T12:24:50;99268.72;;;0.02;90.31
5238;BME280;2639;49.700;7.962;2023-01-26T12:28:24;99258.09;;;0.05;90.51
5238;BME280;2639;49.700;7.962;2023-01-26T12:31:42;99247.84;;;0.10;90.90
5238;BME280;2639;49.700;7.962;2023-01-26T12:34:54;99254.78;;;0.26;90.54
5238;BME280;2639;49.700;7.962;2023-01-26T12:38:08;99251.72;;;0.28;90.20
5238;BME280;2639;49.700;7.962;2023-01-26T12:41:32;99250.41;;;0.17;88.24
5238;BME280;2639;49.700;7.962;2023-01-26T12:44:46;99246.78;;;0.15;88.49
5238;BME280;2639;49.700;7.962;2023-01-26T12:48:06;99240.91;;;-0.05;88.98
5238;BME280;2639;49.700;7.962;2023-01-26T12:51:19;99229.31;;;-0.17;89.42
5238;BME280;2639;49.700;7.962;2023-01-26T12:54:36;99233.16;;;-0.07;90.48
5238;BME280;2639;49.700;7.962;2023-01-26T12:57:52;99223.84;;;0.07;90.30
5238;BME280;2639;49.700;7.962;2023-01-26T13:01:04;99223.72;;;0.19;89.75
5238;BME280;2639;49.700;7.962;2023-01-26T13:04:15;99225.06;;;0.37;89.65
5238;BME280;2639;49.700;7.962;2023-01-26T13:07:29;99231.19;;;0.39;87.78
5238;BME280;2639;49.700;7.962;2023-01-26T13:10:43;99233.25;;;0.56;88.37
5238;BME280;2639;49.700;7.962;2023-01-26T13:13:55;99228.56;;;0.67;87.04
5238;BME280;2639;49.700;7.962;2023-01-26T13:20:45;99226.44;;;0.70;86.30
5238;BME280;2639;49.700;7.962;2023-01-26T13:23:55;99222.66;;;0.88;85.86
5238;BME280;2639;49.700;7.962;2023-01-26T13:27:28;99218.69;;;0.90;85.21
5238;BME280;2639;49.700;7.962;2023-01-26T13:30:42;99221.41;;;0.98;85.24
5238;BME280;2639;49.700;7.962;2023-01-26T13:33:54;99222.50;;;1.00;84.62
5238;BME280;2639;49.700;7.962;2023-01-26T13:37:11;99215.25;;;0.89;84.87
5238;BME280;2639;49.700;7.962;2023-01-26T13:40:26;99215.59;;;0.78;85.44
5238;BME280;2639;49.700;7.962;2023-01-26T13:43:41;99215.97;;;0.88;86.52
5238;BME280;2639;49.700;7.962;2023-01-26T13:46:55;99213.06;;;0.78;85.70
5238;BME280;2639;49.700;7.962;2023-01-26T13:50:21;99224.53;;;0.40;87.49
5238;BME280;2639;49.700;7.962;2023-01-26T13:53:36;99224.16;;;0.37;87.56
5238;BME280;2639;49.700;7.962;2023-01-26T13:56:59;99220.19;;;0.39;87.63
5238;BME280;2639;49.700;7.962;2023-01-26T14:00:10;99231.38;;;0.41;88.76
5238;BME280;2639;49.700;7.962;2023-01-26T14:03:21;99229.22;;;0.44;88.82
5238;BME280;2639;49.700;7.962;2023-01-26T14:06:32;99237.88;;;0.39;88.57
5238;BME280;2639;49.700;7.962;2023-01-26T14:09:45;99231.19;;;0.39;88.34
5238;BME280;2639;49.700;7.962;2023-01-26T14:12:57;99237.88;;;0.39;88.90
5238;BME280;2639;49.700;7.962;2023-01-26T14:16:19;99248.38;;;0.42;89.03
5238;BME280;2639;49.700;7.962;2023-01-26T14:19:38;99254.78;;;0.26;89.54
5238;BME280;2639;49.700;7.962;2023-01-26T14:23:01;99248.66;;;0.24;90.62
5238;BME280;2639;49.700;7.962;2023-01-26T14:26:18;99253.16;;;0.26;91.25
5238;BME280;2639;49.700;7.962;2023-01-26T14:29:29;99250.25;;;0.23;91.31
5238;BME280;2639;49.700;7.962;2023-01-26T14:32:38;99261.63;;;0.27;90.88
5238;BME280;2639;49.700;7.962;2023-01-26T14:35:54;99259.06;;;0.19;91.86
5238;BME280;2639;49.700;7.962;2023-01-26T14:39:14;99254.22;;;0.21;92.16
5238;BME280;2639;49.700;7.962;2023-01-26T14:42:26;99256.81;;;0.35;92.11
5238;BME280;2639;49.700;7.962;2023-01-26T14:45:37;99271.75;;;0.34;91.94
5238;BME280;2639;49.700;7.962;2023-01-26T14:48:51;99262.41;;;0.33;91.41
5238;BME280;2639;49.700;7.962;2023-01-26T14:52:04;99262.72;;;0.29;90.73
5238;BME280;2639;49.700;7.962;2023-01-26T14:55:18;99279.13;;;0.25;91.32
5238;BME280;2639;49.700;7.962;2023-01-26T14:58:31;99265.56;;;0.17;92.68
5238;BME280;2639;49.700;7.962;2023-01-26T15:01:42;99270.25;;;0.14;93.14
5238;BME280;2639;49.700;7.962;2023-01-26T15:04:55;99270.22;;;0.07;94.06
5238;BME280;2639;49.700;7.962;2023-01-26T15:08:18;99264.06;;;0.05;94.60
5238;BME280;2639;49.700;7.962;2023-01-26T15:11:33;99272.72;;;0.07;94.39
5238;BME280;2639;49.700;7.962;2023-01-26T15:14:57;99276.25;;;-0.05;94.21
5238;BME280;2639;49.700;7.962;2023-01-26T15:18:18;99269.75;;;-0.03;94.89
5238;BME280;2639;49.700;7.962;2023-01-26T15:21:31;99259.72;;;0.04;94.86
5238;BME280;2639;49.700;7.962;2023-01-26T15:24:41;99266.38;;;0.04;95.29
5238;BME280;2639;49.700;7.962;2023-01-26T15:27:53;99260.06;;;0.00;95.46
5238;BME280;2639;49.700;7.962;2023-01-26T15:31:19;99265.63;;;-0.03;95.81
5238;BME280;2639;49.700;7.962;2023-01-26T15:34:33;99273.22;;;0.05;95.83
5238;BME280;2639;49.700;7.962;2023-01-26T15:37:44;99268.56;;;0.08;95.89
5238;BME280;2639;49.700;7.962;2023-01-26T15:40:54;99260.81;;;0.06;95.85
5238;BME280;2639;49.700;7.962;2023-01-26T15:44:12;99263.00;;;0.10;96.01
5238;BME280;2639;49.700;7.962;2023-01-26T15:47:25;99265.00;;;0.13;96.17
5238;BME280;2639;49.700;7.962;2023-01-26T15:50:34;99256.56;;;0.19;96.11
5238;BME280;2639;49.700;7.962;2023-01-26T15:53:44;99262.13;;;0.17;96.97
5238;BME280;2639;49.700;7.962;2023-01-26T15:56:53;99259.44;;;0.23;96.90
5238;BME280;2639;49.700;7.962;2023-01-26T16:00:03;99261.63;;;0.27;96.36
5238;BME280;2639;49.700;7.962;2023-01-26T16:03:17;99258.38;;;0.28;96.51
5238;BME280;2639;49.700;7.962;2023-01-26T16:06:29;99260.88;;;0.20;96.71
5238;BME280;2639;49.700;7.962;2023-01-26T16:09:39;99259.44;;;0.23;96.95
5238;BME280;2639;49.700;7.962;2023-01-26T16:12:49;99265.06;;;0.27;97.45
5238;BME280;2639;49.700;7.962;2023-01-26T16:15:59;99267.25;;;0.31;97.50
5238;BME280;2639;49.700;7.962;2023-01-26T16:19:10;99258.25;;;0.33;97.13
5238;BME280;2639;49.700;7.962;2023-01-26T16:22:33;99262.00;;;0.30;97.05
5238;BME280;2639;49.700;7.962;2023-01-26T16:25:45;99256.22;;;0.24;97.59
5238;BME280;2639;49.700;7.962;2023-01-26T16:28:55;99265.94;;;0.20;97.76
5238;BME280;2639;49.700;7.962;2023-01-26T16:32:13;99266.63;;;0.12;99.39
5238;BME280;2639;49.700;7.962;2023-01-26T16:35:27;99258.81;;;0.04;100.00
5238;BME280;2639;49.700;7.962;2023-01-26T16:38:37;99261.09;;;-0.05;100.00
5238;BME280;2639;49.700;7.962;2023-01-26T16:41:49;99256.44;;;-0.02;100.00
5238;BME280;2639;49.700;7.962;2023-01-26T16:44:59;99257.72;;;0.02;100.00
5238;BME280;2639;49.700;7.962;2023-01-26T16:48:11;99251.25;;;0.04;100.00
5238;BME280;2639;49.700;7.962;2023-01-26T16:51:24;99248.50;;;0.02;100.00
5238;BME280;2639;49.700;7.962;2023-01-26T16:54:34;99254.28;;;0.01;100.00
5238;BME280;2639;49.700;7.962;2023-01-26T16:57:45;99246.72;;;0.01;100.00
5238;BME280;2639;49.700;7.962;2023-01-26T17:00:57;99242.03;;;0.04;100.00
5238;BME280;2639;49.700;7.962;2023-01-26T17:04:08;99247.66;;;0.09;100.00
5238;BME280;2639;49.700;7.962;2023-01-26T17:07:20;99244.25;;;0.15;100.00
5238;BME280;2639;49.700;7.962;2023-01-26T17:10:29;99238.88;;;0.19;100.00
5238;BME280;2639;49.700;7.962;2023-01-26T17:13:39;99246.47;;;0.19;100.00
5238;BME280;2639;49.700;7.962;2023-01-26T17:16:49;99242.09;;;0.18;100.00
5238;BME280;2639;49.700;7.962;2023-01-26T17:19:58;99242.09;;;0.18;100.00
5238;BME280;2639;49.700;7.962;2023-01-26T17:23:26;99242.50;;;0.22;100.00
5238;BME280;2639;49.700;7.962;2023-01-26T17:26:36;99243.56;;;0.16;100.00
5238;BME280;2639;49.700;7.962;2023-01-26T17:29:49;99241.75;;;0.15;100.00
5238;BME280;2639;49.700;7.962;2023-01-26T17:32:58;99241.38;;;0.12;100.00
5238;BME280;2639;49.700;7.962;2023-01-26T17:36:09;99247.84;;;0.10;100.00
5238;BME280;2639;49.700;7.962;2023-01-26T17:39:20;99247.84;;;0.10;100.00
5238;BME280;2639;49.700;7.962;2023-01-26T17:42:31;99243.88;;;0.05;100.00
5238;BME280;2639;49.700;7.962;2023-01-26T17:45:42;99247.09;;;0.04;100.00
5238;BME280;2639;49.700;7.962;2023-01-26T17:48:53;99257.59;;;0.07;100.00
5238;BME280;2639;49.700;7.962;2023-01-26T17:52:03;99254.88;;;0.06;100.00
5238;BME280;2639;49.700;7.962;2023-01-26T17:55:15;99257.06;;;0.10;100.00
5238;BME280;2639;49.700;7.962;2023-01-26T17:58:24;99256.69;;;0.14;100.00
5238;BME280;2639;49.700;7.962;2023-01-26T18:01:34;99251.31;;;0.18;100.00
5238;BME280;2639;49.700;7.962;2023-01-26T18:04:44;99261.59;;;0.19;100.00
5238;BME280;2639;49.700;7.962;2023-01-26T18:07:53;99257.66;;;0.22;100.00
5238;BME280;2639;49.700;7.962;2023-01-26T18:11:07;99258.00;;;0.25;100.00
5238;BME280;2639;49.700;7.962;2023-01-26T18:14:17;99268.47;;;0.28;100.00
5238;BME280;2639;49.700;7.962;2023-01-26T18:17:26;99265.38;;;0.23;100.00
5238;BME280;2639;49.700;7.962;2023-01-26T18:20:36;99260.53;;;0.25;100.00
5238;BME280;2639;49.700;7.962;2023-01-26T18:23:46;99263.44;;;0.28;100.00
5238;BME280;2639;49.700;7.962;2023-01-26T18:26:58;99256.94;;;0.30;100.00
5238;BME280;2639;49.700;7.962;2023-01-26T18:30:09;99264.53;;;0.30;100.00
5238;BME280;2639;49.700;7.962;2023-01-26T18:33:19;99262.53;;;0.27;100.00
5238;BME280;2639;49.700;7.962;2023-01-26T18:36:29;99268.47;;;0.28;100.00
5238;BME280;2639;49.700;7.962;2023-01-26T18:39:39;99268.88;;;0.31;100.00
5238;BME280;2639;49.700;7.962;2023-01-26T18:42:52;99274.66;;;0.37;100.00
5238;BME280;2639;49.700;7.962;2023-01-26T18:46:03;99276.47;;;0.38;100.00
5238;BME280;2639;49.700;7.962;2023-01-26T18:49:13;99279.91;;;0.38;100.00
5238;BME280;2639;49.700;7.962;2023-01-26T18:52:23;99274.13;;;0.39;100.00
5238;BME280;2639;49.700;7.962;2023-01-26T18:55:33;99278.66;;;0.42;100.00
5238;BME280;2639;49.700;7.962;2023-01-26T18:58:44;99270.56;;;0.45;100.00
5238;BME280;2639;49.700;7.962;2023-01-26T19:01:53;99273.66;;;0.49;100.00
5238;BME280;2639;49.700;7.962;2023-01-26T19:05:04;99277.97;;;0.50;100.00
5238;BME280;2639;49.700;7.962;2023-01-26T19:08:14;99272.91;;;0.50;100.00
5238;BME280;2639;49.700;7.962;2023-01-26T19:11:26;99276.16;;;0.49;100.00
5238;BME280;2639;49.700;7.962;2023-01-26T19:14:37;99270.72;;;0.46;100.00
5238;BME280;2639;49.700;7.962;2023-01-26T19:17:47;99273.63;;;0.42;100.00
5238;BME280;2639;49.700;7.962;2023-01-26T19:20:57;99280.47;;;0.43;100.00
5238;BME280;2639;49.700;7.962;2023-01-26T19:24:07;99276.50;;;0.45;100.00
5238;BME280;2639;49.700;7.962;2023-01-26T19:27:17;99271.81;;;0.48;100.00
5238;BME280;2639;49.700;7.962;2023-01-26T19:30:28;99267.88;;;0.50;100.00
5238;BME280;2639;49.700;7.962;2023-01-26T19:33:38;99272.91;;;0.50;100.00
5238;BME280;2639;49.700;7.962;2023-01-26T19:36:48;99269.81;;;0.46;100.00
5238;BME280;2639;49.700;7.962;2023-01-26T19:39:57;99276.84;;;0.41;100.00
5238;BME280;2639;49.700;7.962;2023-01-26T19:43:07;99268.72;;;0.36;100.00
5238;BME280;2639;49.700;7.962;2023-01-26T19:46:19;99266.38;;;0.38;100.00
5238;BME280;2639;49.700;7.962;2023-01-26T19:49:29;99263.50;;;0.42;100.00
5238;BME280;2639;49.700;7.962;2023-01-26T19:52:38;99263.50;;;0.42;100.00
5238;BME280;2639;49.700;7.962;2023-01-26T19:55:48;99267.09;;;0.44;100.00
5238;BME280;2639;49.700;7.962;2023-01-26T19:59:00;99266.59;;;0.47;100.00
5238;BME280;2639;49.700;7.962;2023-01-26T20:02:11;99259.91;;;0.47;100.00
5238;BME280;2639;49.700;7.962;2023-01-26T20:05:21;99271.81;;;0.48;100.00
5238;BME280;2639;49.700;7.962;2023-01-26T20:08:31;99264.44;;;0.50;100.00
5238;BME280;2639;49.700;7.962;2023-01-26T20:11:41;99261.91;;;0.50;100.00
5238;BME280;2639;49.700;7.962;2023-01-26T20:14:50;99261.03;;;0.49;100.00
5238;BME280;2639;49.700;7.962;2023-01-26T20:18:02;99266.75;;;0.48;100.00
5238;BME280;2639;49.700;7.962;2023-01-26T20:21:11;99261.03;;;0.49;100.00
5238;BME280;2639;49.700;7.962;2023-01-26T20:24:21;99257.75;;;0.50;100.00
5238;BME280;2639;49.700;7.962;2023-01-26T20:27:31;99256.31;;;0.52;100.00
5238;BME280;2639;49.700;7.962;2023-01-26T20:30:42;99254.53;;;0.51;100.00
5238;BME280;2639;49.700;7.962;2023-01-26T20:33:55;99251.63;;;0.55;100.00
5238;BME280;2639;49.700;7.962;2023-01-26T20:37:05;99248.41;;;0.56;100.00
5238;BME280;2639;49.700;7.962;2023-01-26T20:40:17;99248.41;;;0.56;100.00
